Time;durP1;ratioP1;P1;durP2;ratioP2;P2;SDS_P1;SDS_P2;PMS_P1;PMS_P2;Temp;Humidity;BMP_temperature;BMP_pressure;BME280_temperature;BME280_humidity;BME280_pressure;Samples;Min_cycle;Max_cycle;Signal;HPM_P1;HPM_P2
2024/01/09 00:00:49;;;;;;;11.98;7.25;;;-3.10;99.90;;;;;;5114325;28;20243;-70
2024/01/09 00:03:16;;;;;;;14.25;7.45;;;-3.10;99.90;;;;;;5114574;28;20210;-70
2024/01/09 00:05:46;;;;;;;12.05;7.15;;;-3.10;99.90;;;;;;5114299;28;20207;-69
2024/01/09 00:08:14;;;;;;;9.15;6.50;;;-3.10;99.90;;;;;;5114035;28;20245;-69
2024/01/09 00:10:42;;;;;;;12.90;7.22;;;-3.10;99.90;;;;;;5114117;28;20665;-69
2024/01/09 00:13:09;;;;;;;12.85;7.43;;;-3.10;99.90;;;;;;5114479;28;20302;-70
2024/01/09 00:15:37;;;;;;;14.25;6.90;;;-3.10;99.90;;;;;;5114067;28;20243;-70
2024/01/09 00:18:05;;;;;;;12.95;6.65;;;-3.10;99.90;;;;;;5113753;28;20224;-70
2024/01/09 00:20:33;;;;;;;12.40;7.03;;;-3.20;99.90;;;;;;5113517;28;20696;-70
2024/01/09 00:23:02;;;;;;;11.00;6.60;;;-3.20;99.90;;;;;;5114377;28;20210;-70
2024/01/09 00:25:30;;;;;;;14.38;7.10;;;-3.20;99.90;;;;;;5113836;28;20742;-70
2024/01/09 00:27:58;;;;;;;14.57;7.32;;;-3.20;99.90;;;;;;5113592;28;20267;-70
2024/01/09 00:30:26;;;;;;;11.10;6.63;;;-3.20;99.90;;;;;;5113487;28;20200;-70
2024/01/09 00:32:54;;;;;;;12.32;7.10;;;-3.30;99.90;;;;;;5114026;28;20200;-69
2024/01/09 00:35:22;;;;;;;9.05;6.53;;;-3.20;99.90;;;;;;5113600;28;20688;-69
2024/01/09 00:37:50;;;;;;;13.48;7.03;;;-3.20;99.90;;;;;;5114030;28;20311;-69
2024/01/09 00:40:19;;;;;;;19.40;7.28;;;-3.20;99.90;;;;;;5113004;28;20250;-70
2024/01/09 00:42:47;;;;;;;12.18;6.47;;;-3.20;99.90;;;;;;5113913;28;20212;-69
2024/01/09 00:45:15;;;;;;;13.77;7.03;;;-3.20;99.90;;;;;;5113323;27;20208;-69
2024/01/09 00:47:43;;;;;;;13.10;7.03;;;-3.20;99.90;;;;;;5113349;27;20606;-69
2024/01/09 00:50:11;;;;;;;13.10;7.45;;;-3.20;99.90;;;;;;5113053;28;20208;-70
2024/01/09 00:52:39;;;;;;;13.70;7.18;;;-3.20;99.90;;;;;;5113413;28;20687;-69
2024/01/09 00:55:08;;;;;;;13.43;7.40;;;-3.20;99.90;;;;;;5113612;28;20235;-69
2024/01/09 00:57:37;;;;;;;16.58;7.00;;;-3.20;99.90;;;;;;5112275;28;20238;-69
2024/01/09 01:00:06;;;;;;;16.88;7.35;;;-3.20;99.90;;;;;;5112018;28;20204;-70
2024/01/09 01:02:34;;;;;;;11.45;6.53;;;-3.30;99.90;;;;;;5113098;28;20290;-69
2024/01/09 01:05:02;;;;;;;13.05;7.35;;;-3.20;99.90;;;;;;5106612;28;20295;-69
2024/01/09 01:07:30;;;;;;;14.48;6.97;;;-3.30;99.90;;;;;;5113022;28;20228;-69
2024/01/09 01:09:58;;;;;;;13.27;7.28;;;-3.20;99.90;;;;;;5112557;28;20262;-69
2024/01/09 01:12:26;;;;;;;10.70;6.13;;;-3.30;99.90;;;;;;5113113;28;20196;-69
2024/01/09 01:14:55;;;;;;;12.65;6.72;;;-3.30;99.90;;;;;;5113116;28;20235;-69
2024/01/09 01:17:23;;;;;;;16.13;7.45;;;-3.30;99.90;;;;;;5104497;28;20224;-69
2024/01/09 01:19:51;;;;;;;14.10;7.75;;;-3.30;99.90;;;;;;5112462;28;20214;-70
2024/01/09 01:22:19;;;;;;;12.82;7.30;;;-3.20;99.90;;;;;;5112881;28;20291;-70
2024/01/09 01:24:47;;;;;;;13.00;7.03;;;-3.20;99.90;;;;;;5113053;28;20261;-69
2024/01/09 01:27:15;;;;;;;13.05;6.93;;;-3.20;99.90;;;;;;5111233;28;20251;-69
2024/01/09 01:29:43;;;;;;;11.25;6.93;;;-3.20;99.90;;;;;;5106695;28;20320;-69
2024/01/09 01:32:12;;;;;;;11.85;6.65;;;-3.30;99.90;;;;;;5109217;28;20304;-69
2024/01/09 01:34:40;;;;;;;13.13;6.97;;;-3.30;99.90;;;;;;5112731;28;20208;-69
2024/01/09 01:37:08;;;;;;;11.15;7.18;;;-3.30;99.90;;;;;;5112348;28;20223;-69
2024/01/09 01:39:37;;;;;;;12.75;6.82;;;-3.30;99.90;;;;;;5111916;28;20624;-69
2024/01/09 01:42:05;;;;;;;13.60;6.68;;;-3.30;99.90;;;;;;5107749;28;20249;-69
2024/01/09 01:44:33;;;;;;;15.73;6.53;;;-3.40;99.90;;;;;;5112703;28;20212;-69
2024/01/09 01:47:01;;;;;;;13.98;7.15;;;-3.40;99.90;;;;;;5112430;28;20238;-69
2024/01/09 01:49:30;;;;;;;14.27;7.05;;;-3.40;99.90;;;;;;5111616;28;20273;-69
2024/01/09 01:51:58;;;;;;;11.80;6.90;;;-3.40;99.90;;;;;;5112391;28;20204;-69
2024/01/09 01:54:26;;;;;;;16.05;6.72;;;-3.40;99.90;;;;;;5112295;28;20204;-69
2024/01/09 01:56:53;;;;;;;17.00;7.68;;;-3.40;99.90;;;;;;5111663;28;20224;-69
2024/01/09 01:59:21;;;;;;;10.60;6.28;;;-3.40;99.90;;;;;;5111751;28;20584;-69
2024/01/09 02:01:49;;;;;;;14.82;7.63;;;-3.40;99.90;;;;;;5112040;28;20214;-69
2024/01/09 02:04:17;;;;;;;11.65;6.57;;;-3.40;99.90;;;;;;5112208;28;20228;-69
2024/01/09 02:06:47;;;;;;;14.68;7.38;;;-3.50;99.90;;;;;;5111936;28;20284;-69
2024/01/09 02:09:15;;;;;;;13.10;6.80;;;-3.50;99.90;;;;;;5111463;27;20315;-69
2024/01/09 02:11:46;;;;;;;14.32;7.38;;;-3.50;99.90;;;;;;5112199;28;20208;-69
2024/01/09 02:14:14;;;;;;;15.85;7.63;;;-3.50;99.90;;;;;;5112086;28;20208;-69
2024/01/09 02:16:43;;;;;;;14.52;7.63;;;-3.50;99.90;;;;;;5111983;28;20230;-69
2024/01/09 02:19:11;;;;;;;11.18;6.80;;;-3.60;99.90;;;;;;5111080;28;20208;-69
2024/01/09 02:21:39;;;;;;;14.18;6.82;;;-3.60;99.90;;;;;;5111802;28;20769;-69
2024/01/09 02:24:08;;;;;;;14.98;8.07;;;-3.50;99.90;;;;;;5112146;28;20292;-69
2024/01/09 02:26:36;;;;;;;15.38;7.32;;;-3.50;99.90;;;;;;5112608;28;20719;-69
2024/01/09 02:29:24;;;;;;;12.07;6.38;;;-3.50;99.90;;;;;;5111474;28;20222;-69
2024/01/09 02:31:53;;;;;;;12.48;7.22;;;-3.50;99.90;;;;;;5111942;28;20265;-69
2024/01/09 02:34:21;;;;;;;14.30;7.53;;;-3.50;99.90;;;;;;5111780;28;20208;-70
2024/01/09 02:36:49;;;;;;;17.13;8.50;;;-3.50;99.90;;;;;;5111618;28;20583;-70
2024/01/09 02:39:17;;;;;;;13.13;7.25;;;-3.60;99.90;;;;;;5111343;28;20294;-70
2024/01/09 02:41:46;;;;;;;11.90;6.80;;;-3.60;99.90;;;;;;5111669;28;20246;-70
2024/01/09 02:44:14;;;;;;;13.35;7.63;;;-3.60;99.90;;;;;;5114033;28;20204;-69
2024/01/09 02:46:42;;;;;;;11.10;6.80;;;-3.60;99.90;;;;;;5112216;28;20247;-70
2024/01/09 02:49:13;;;;;;;11.73;7.05;;;-3.60;99.90;;;;;;5111262;28;20532;-70
2024/01/09 02:51:41;;;;;;;11.68;7.45;;;-3.60;99.90;;;;;;5108819;28;20204;-69
2024/01/09 02:54:09;;;;;;;14.07;6.93;;;-3.60;99.90;;;;;;5108981;28;20204;-69
2024/01/09 02:56:36;;;;;;;14.60;7.30;;;-3.70;99.90;;;;;;5111542;28;20323;-69
2024/01/09 02:59:05;;;;;;;11.57;6.68;;;-3.70;99.90;;;;;;5096619;28;20204;-69
2024/01/09 03:01:32;;;;;;;11.75;7.13;;;-3.70;99.90;;;;;;5111465;28;20265;-69
2024/01/09 03:04:00;;;;;;;14.45;7.72;;;-3.70;99.90;;;;;;5111703;28;20231;-69
2024/01/09 03:06:30;;;;;;;15.35;7.47;;;-3.70;99.90;;;;;;5111324;28;20228;-69
2024/01/09 03:08:58;;;;;;;14.38;6.80;;;-3.70;99.90;;;;;;5114075;28;20253;-69
2024/01/09 03:11:25;;;;;;;12.40;7.05;;;-3.60;99.90;;;;;;5115416;28;20239;-70
2024/01/09 03:13:53;;;;;;;11.43;6.38;;;-3.70;99.90;;;;;;5115459;28;20207;-70
2024/01/09 03:16:21;;;;;;;15.73;6.93;;;-3.60;99.90;;;;;;5115222;28;20704;-70
2024/01/09 03:18:49;;;;;;;18.08;8.20;;;-3.70;99.90;;;;;;5114916;28;20204;-70
2024/01/09 03:21:17;;;;;;;13.50;7.15;;;-3.60;99.90;;;;;;5115170;28;20617;-70
2024/01/09 03:23:47;;;;;;;11.63;6.78;;;-3.60;99.90;;;;;;5115516;28;20231;-70
2024/01/09 03:26:15;;;;;;;15.73;7.55;;;-3.70;99.90;;;;;;5115076;28;20204;-70
2024/01/09 03:28:43;;;;;;;15.45;7.22;;;-3.70;99.90;;;;;;5114829;28;20211;-70
2024/01/09 03:31:19;;;;;;;16.48;7.43;;;-3.70;99.90;;;;;;5114598;28;20283;-70
2024/01/09 03:33:47;;;;;;;11.82;6.68;;;-3.70;99.90;;;;;;5115332;28;20215;-70
2024/01/09 03:36:15;;;;;;;13.18;6.50;;;-3.70;99.90;;;;;;5114773;28;20210;-70
2024/01/09 03:38:43;;;;;;;13.77;6.63;;;-3.70;99.90;;;;;;5114692;28;20212;-70
2024/01/09 03:41:13;;;;;;;14.38;7.22;;;-3.70;99.90;;;;;;5114586;27;20582;-70
2024/01/09 03:43:41;;;;;;;12.15;6.38;;;-3.70;99.90;;;;;;5114947;28;20213;-70
2024/01/09 03:46:08;;;;;;;15.02;7.72;;;-3.80;99.90;;;;;;5114417;28;20294;-70
2024/01/09 03:48:36;;;;;;;16.27;7.20;;;-3.80;99.90;;;;;;5110677;27;20208;-70
2024/01/09 03:51:05;;;;;;;12.57;5.93;;;-3.80;99.90;;;;;;5114480;27;20640;-70
2024/01/09 03:53:33;;;;;;;10.93;6.07;;;-3.80;99.90;;;;;;5104990;28;20216;-70
2024/01/09 03:56:01;;;;;;;11.25;6.43;;;-3.80;99.90;;;;;;5114193;28;20291;-70
2024/01/09 03:58:30;;;;;;;13.55;6.85;;;-3.90;99.90;;;;;;5114011;28;20281;-70
2024/01/09 04:00:58;;;;;;;11.07;6.88;;;-3.90;99.90;;;;;;5114165;28;20244;-70
2024/01/09 04:03:27;;;;;;;15.02;7.00;;;-3.90;99.90;;;;;;5114387;28;20681;-70
2024/01/09 04:05:54;;;;;;;9.38;5.90;;;-3.80;99.90;;;;;;5114489;28;20199;-70
2024/01/09 04:08:23;;;;;;;15.98;7.53;;;-3.80;99.90;;;;;;5110999;28;20224;-70
2024/01/09 04:10:50;;;;;;;13.75;6.15;;;-3.80;99.90;;;;;;5110733;28;20219;-70
2024/01/09 04:13:19;;;;;;;11.27;6.28;;;-3.90;99.90;;;;;;5112157;28;20265;-70
2024/01/09 04:15:48;;;;;;;13.98;6.25;;;-3.90;99.90;;;;;;5114341;28;20239;-70
2024/01/09 04:18:16;;;;;;;11.20;6.18;;;-3.90;99.90;;;;;;5113793;28;20224;-70
2024/01/09 04:20:44;;;;;;;12.32;6.63;;;-3.90;99.90;;;;;;5105742;28;20294;-70
2024/01/09 04:23:12;;;;;;;14.65;6.75;;;-3.90;99.90;;;;;;5114460;28;20232;-70
2024/01/09 04:25:40;;;;;;;10.57;5.90;;;-3.90;99.90;;;;;;5113928;28;20211;-70
2024/01/09 04:28:08;;;;;;;12.40;5.88;;;-3.90;99.90;;;;;;5113625;28;20314;-70
2024/01/09 04:30:36;;;;;;;10.35;6.35;;;-3.90;99.90;;;;;;5113559;28;20318;-70
2024/01/09 04:33:05;;;;;;;10.65;5.65;;;-3.90;99.90;;;;;;5113760;28;20754;-70
2024/01/09 04:35:32;;;;;;;10.63;6.47;;;-3.90;99.90;;;;;;5114025;28;20242;-70
2024/01/09 04:38:00;;;;;;;12.02;6.63;;;-3.80;99.90;;;;;;5113261;28;20223;-70
2024/01/09 04:40:28;;;;;;;13.57;6.43;;;-3.90;99.90;;;;;;5113846;28;20208;-70
2024/01/09 04:42:56;;;;;;;9.80;5.80;;;-3.90;99.90;;;;;;5113875;28;20203;-70
2024/01/09 04:45:24;;;;;;;8.93;5.28;;;-3.90;99.90;;;;;;5112414;28;20208;-70
2024/01/09 04:47:52;;;;;;;13.38;6.40;;;-3.90;99.90;;;;;;5114096;28;20234;-69
2024/01/09 04:50:22;;;;;;;11.68;5.78;;;-3.90;99.90;;;;;;5113006;27;20327;-69
2024/01/09 04:52:50;;;;;;;11.70;6.05;;;-3.90;99.90;;;;;;5113381;28;20207;-69
2024/01/09 04:55:17;;;;;;;12.02;6.15;;;-3.90;99.90;;;;;;5112066;28;20238;-69
2024/01/09 04:57:45;;;;;;;13.18;6.13;;;-3.90;99.90;;;;;;5113332;28;20708;-69
2024/01/09 05:00:14;;;;;;;10.90;6.10;;;-3.90;99.90;;;;;;5110985;28;20196;-69
2024/01/09 05:02:42;;;;;;;12.52;6.35;;;-3.90;99.90;;;;;;5112359;28;20681;-69
2024/01/09 05:05:11;;;;;;;11.88;5.90;;;-4.00;99.90;;;;;;5107235;28;20204;-69
2024/01/09 05:07:40;;;;;;;11.80;5.97;;;-4.00;99.90;;;;;;5112988;27;20219;-69
2024/01/09 05:10:08;;;;;;;8.60;5.40;;;-4.00;99.90;;;;;;5112809;28;20200;-69
2024/01/09 05:12:36;;;;;;;11.20;5.55;;;-4.00;99.90;;;;;;5113170;28;20239;-69
2024/01/09 05:15:05;;;;;;;9.73;5.80;;;-3.90;99.90;;;;;;5113479;28;20204;-69
2024/01/09 05:17:33;;;;;;;11.65;6.15;;;-3.90;99.90;;;;;;5112867;28;20311;-69
2024/01/09 05:20:01;;;;;;;10.32;5.40;;;-3.90;99.90;;;;;;5112357;28;20324;-69
2024/01/09 05:22:29;;;;;;;8.13;5.20;;;-3.90;99.90;;;;;;5113051;28;20208;-69
2024/01/09 05:24:58;;;;;;;14.02;6.47;;;-3.90;99.90;;;;;;5113186;28;20224;-69
2024/01/09 05:27:26;;;;;;;12.68;5.85;;;-3.90;99.90;;;;;;5112810;28;20315;-69
2024/01/09 05:29:54;;;;;;;11.85;5.82;;;-3.90;99.90;;;;;;5112292;28;20670;-69
2024/01/09 05:32:22;;;;;;;12.77;6.32;;;-3.90;99.90;;;;;;5111520;28;20211;-69
2024/01/09 05:34:50;;;;;;;13.40;5.07;;;-3.90;99.90;;;;;;5112993;28;20625;-69
2024/01/09 05:37:18;;;;;;;11.18;5.40;;;-3.90;99.90;;;;;;5112494;28;20220;-69
2024/01/09 05:39:48;;;;;;;10.05;5.45;;;-3.90;99.90;;;;;;5112257;28;20609;-69
2024/01/09 05:42:17;;;;;;;10.93;5.50;;;-3.90;99.90;;;;;;5100796;28;20264;-69
2024/01/09 05:44:45;;;;;;;11.63;5.78;;;-3.90;99.90;;;;;;5114040;28;20688;-69
2024/01/09 05:47:13;;;;;;;10.45;5.30;;;-3.90;99.90;;;;;;5108280;28;20231;-69
2024/01/09 05:49:41;;;;;;;10.00;5.78;;;-3.80;99.90;;;;;;5108942;28;20207;-69
2024/01/09 05:52:08;;;;;;;8.25;5.28;;;-3.90;99.90;;;;;;5104520;28;20235;-69
2024/01/09 05:54:36;;;;;;;10.93;5.72;;;-3.90;99.90;;;;;;5108317;28;20770;-69
2024/01/09 05:57:05;;;;;;;9.20;5.03;;;-3.90;99.90;;;;;;5104489;28;20303;-69
2024/01/09 05:59:34;;;;;;;9.85;5.15;;;-3.90;99.90;;;;;;5111122;28;20208;-69
2024/01/09 06:02:05;;;;;;;10.73;5.78;;;-3.90;99.90;;;;;;5112331;28;20232;-69
2024/01/09 06:04:33;;;;;;;9.60;5.07;;;-3.90;99.90;;;;;;5112114;28;20216;-69
2024/01/09 06:07:00;;;;;;;9.32;4.93;;;-3.90;99.90;;;;;;5112028;28;20261;-69
2024/01/09 06:09:28;;;;;;;10.68;5.25;;;-3.90;99.90;;;;;;5111174;28;20204;-69
2024/01/09 06:11:56;;;;;;;10.57;5.30;;;-3.90;99.90;;;;;;5111691;28;20216;-69
2024/01/09 06:14:24;;;;;;;13.82;6.22;;;-3.90;99.90;;;;;;5112104;28;20200;-69
2024/01/09 06:16:53;;;;;;;8.15;4.93;;;-3.90;99.90;;;;;;5111761;28;20693;-69
2024/01/09 06:19:21;;;;;;;8.75;4.68;;;-3.90;99.90;;;;;;5106609;28;20236;-69
2024/01/09 06:21:49;;;;;;;9.00;5.32;;;-3.90;99.90;;;;;;5104789;28;20231;-69
2024/01/09 06:24:17;;;;;;;9.02;5.75;;;-3.90;99.90;;;;;;5111525;28;20228;-69
2024/01/09 06:26:45;;;;;;;8.85;5.20;;;-3.90;99.90;;;;;;5111391;28;20669;-69
2024/01/09 06:29:13;;;;;;;13.50;5.50;;;-4.00;99.90;;;;;;5111213;28;20200;-69
2024/01/09 06:31:41;;;;;;;11.00;4.45;;;-3.90;99.90;;;;;;5111557;28;20220;-69
2024/01/09 06:34:10;;;;;;;9.50;5.03;;;-4.00;99.90;;;;;;5111851;28;20626;-69
2024/01/09 06:36:38;;;;;;;11.73;5.72;;;-4.00;99.90;;;;;;5111294;28;20259;-69
2024/01/09 06:39:06;;;;;;;10.15;5.15;;;-3.90;99.90;;;;;;5111117;28;20261;-68
2024/01/09 06:41:34;;;;;;;10.43;5.28;;;-3.90;99.90;;;;;;5111568;28;20265;-69
2024/01/09 06:44:02;;;;;;;9.70;4.82;;;-3.90;99.90;;;;;;5114997;28;20207;-69
2024/01/09 06:46:30;;;;;;;9.05;4.22;;;-3.90;99.90;;;;;;5108711;28;20322;-69
2024/01/09 06:48:57;;;;;;;8.90;4.72;;;-3.80;99.90;;;;;;5102545;28;20652;-68
2024/01/09 06:51:28;;;;;;;10.20;5.57;;;-3.80;99.90;;;;;;5114954;28;20251;-68
2024/01/09 06:53:56;;;;;;;7.68;4.60;;;-3.80;99.90;;;;;;5115820;28;20585;-69
2024/01/09 06:56:24;;;;;;;9.02;5.28;;;-3.80;99.90;;;;;;5115449;27;20224;-69
2024/01/09 06:58:52;;;;;;;8.00;4.80;;;-3.80;99.90;;;;;;5115205;28;20200;-69
2024/01/09 07:01:21;;;;;;;9.18;4.88;;;-3.80;99.90;;;;;;5115503;27;20195;-71
2024/01/09 07:03:49;;;;;;;9.60;4.93;;;-3.80;99.90;;;;;;5115830;28;20204;-72
2024/01/09 07:06:17;;;;;;;8.18;4.57;;;-3.80;99.90;;;;;;5115389;28;20732;-72
2024/01/09 07:08:46;;;;;;;9.27;5.20;;;-3.80;99.90;;;;;;5115188;28;20207;-71
2024/01/09 07:11:14;;;;;;;7.25;4.18;;;-3.80;99.90;;;;;;5115368;28;20260;-72
2024/01/09 07:13:42;;;;;;;9.20;4.88;;;-3.80;99.90;;;;;;5115352;28;20203;-70
2024/01/09 07:16:10;;;;;;;8.15;4.43;;;-3.80;99.90;;;;;;5115495;28;20196;-71
2024/01/09 07:18:38;;;;;;;7.03;4.53;;;-3.80;99.90;;;;;;5113461;28;20231;-71
2024/01/09 07:21:07;;;;;;;10.15;4.97;;;-3.80;99.90;;;;;;5114120;28;20256;-71
2024/01/09 07:23:35;;;;;;;12.38;5.20;;;-3.80;99.90;;;;;;5111824;27;20210;-71
2024/01/09 07:26:04;;;;;;;7.70;4.60;;;-3.70;99.90;;;;;;5107083;28;20200;-71
2024/01/09 07:28:32;;;;;;;7.32;4.53;;;-3.70;99.90;;;;;;5105433;28;20240;-71
2024/01/09 07:31:00;;;;;;;9.75;4.82;;;-3.70;99.90;;;;;;5114646;28;20203;-71
2024/01/09 07:33:28;;;;;;;10.00;4.70;;;-3.70;99.90;;;;;;5115195;28;20251;-71
2024/01/09 07:35:56;;;;;;;10.13;5.10;;;-3.80;99.90;;;;;;5115279;28;20295;-72
2024/01/09 07:38:24;;;;;;;7.93;4.22;;;-3.80;99.90;;;;;;5114192;28;20570;-72
2024/01/09 07:40:53;;;;;;;11.50;5.30;;;-3.80;99.90;;;;;;5114898;28;20208;-71
2024/01/09 07:43:27;;;;;;;8.20;4.88;;;-3.70;99.90;;;;;;5114684;28;20193;-71
2024/01/09 07:45:55;;;;;;;8.77;5.13;;;-3.70;99.90;;;;;;5114654;27;20223;-70
2024/01/09 07:48:23;;;;;;;7.53;4.35;;;-3.70;99.90;;;;;;5113970;28;20256;-71
2024/01/09 07:50:51;;;;;;;9.93;4.82;;;-3.70;99.90;;;;;;5114273;28;20207;-70
2024/01/09 07:53:19;;;;;;;10.20;5.55;;;-3.70;99.90;;;;;;5114452;27;20220;-71
2024/01/09 07:55:47;;;;;;;6.75;4.57;;;-3.60;99.90;;;;;;5113412;28;20283;-71
2024/01/09 07:58:15;;;;;;;8.70;4.68;;;-3.60;99.90;;;;;;5113858;28;20251;-71
2024/01/09 08:00:44;;;;;;;9.30;4.53;;;-3.60;99.90;;;;;;5114554;28;20207;-71
2024/01/09 08:03:13;;;;;;;7.72;4.55;;;-3.60;99.90;;;;;;5114614;28;20218;-71
2024/01/09 08:05:46;;;;;;;5.40;4.07;;;-3.60;99.90;;;;;;5114622;28;20204;-71
2024/01/09 08:08:14;;;;;;;8.38;4.53;;;-3.60;99.90;;;;;;5113895;28;20223;-70
2024/01/09 08:10:42;;;;;;;7.10;4.30;;;-3.60;99.90;;;;;;5113937;28;20200;-70
2024/01/09 08:13:10;;;;;;;8.63;5.07;;;-3.60;99.90;;;;;;5114359;28;20272;-71
2024/01/09 08:15:38;;;;;;;7.30;5.15;;;-3.60;99.90;;;;;;5114260;28;20730;-71
2024/01/09 08:18:07;;;;;;;7.75;4.57;;;-3.60;99.90;;;;;;5113638;28;20224;-71
2024/01/09 08:20:35;;;;;;;9.55;4.65;;;-3.60;99.90;;;;;;5114022;28;20643;-71
2024/01/09 08:23:03;;;;;;;6.32;4.32;;;-3.60;99.90;;;;;;5113920;28;20200;-71
2024/01/09 08:25:31;;;;;;;6.05;4.47;;;-3.50;99.90;;;;;;5114030;27;20211;-71
2024/01/09 08:27:59;;;;;;;11.13;4.95;;;-3.50;99.90;;;;;;5114113;28;20259;-71
2024/01/09 08:30:27;;;;;;;12.32;4.57;;;-3.50;99.90;;;;;;5113718;28;20275;-71
2024/01/09 08:32:57;;;;;;;11.65;5.28;;;-3.50;99.90;;;;;;5111294;28;20310;-72
2024/01/09 08:35:27;;;;;;;8.25;4.72;;;-3.50;99.90;;;;;;5112646;28;20282;-71
2024/01/09 08:37:54;;;;;;;8.18;4.40;;;-3.40;99.90;;;;;;5113580;28;20224;-71
2024/01/09 08:40:22;;;;;;;9.25;4.32;;;-3.30;99.90;;;;;;5112701;28;20299;-71
2024/01/09 08:42:50;;;;;;;8.27;4.50;;;-3.40;99.90;;;;;;5114789;28;20300;-72
2024/01/09 08:45:18;;;;;;;9.70;4.68;;;-3.30;99.90;;;;;;5113865;28;20261;-72
2024/01/09 08:47:46;;;;;;;7.43;4.63;;;-3.30;99.90;;;;;;5113546;28;20259;-71
2024/01/09 08:50:14;;;;;;;8.07;4.38;;;-3.30;99.90;;;;;;5112841;28;20204;-72
2024/01/09 08:52:43;;;;;;;7.57;4.40;;;-3.20;99.90;;;;;;5113528;28;20220;-72
2024/01/09 08:55:11;;;;;;;9.10;4.30;;;-3.20;99.90;;;;;;5113366;28;20722;-71
2024/01/09 08:57:39;;;;;;;9.40;4.38;;;-3.10;99.90;;;;;;5113741;28;20263;-71
2024/01/09 09:00:08;;;;;;;8.65;4.38;;;-3.10;99.90;;;;;;5112817;28;20196;-71
2024/01/09 09:02:36;;;;;;;9.15;4.43;;;-3.00;99.90;;;;;;5113082;28;20203;-71
2024/01/09 09:05:05;;;;;;;8.25;4.68;;;-2.90;99.90;;;;;;5113271;28;20196;-72
2024/01/09 09:07:32;;;;;;;7.95;4.00;;;-2.90;99.90;;;;;;5112985;28;20224;-72
2024/01/09 09:10:02;;;;;;;7.78;4.43;;;-2.80;99.90;;;;;;5112508;28;20236;-71
2024/01/09 09:12:31;;;;;;;7.18;4.10;;;-2.70;99.90;;;;;;5112995;28;20223;-71
2024/01/09 09:14:58;;;;;;;6.57;4.50;;;-2.60;99.90;;;;;;5113238;28;20231;-71
2024/01/09 09:17:26;;;;;;;7.45;4.72;;;-2.50;99.90;;;;;;5112754;28;20223;-72
2024/01/09 09:19:54;;;;;;;8.65;5.03;;;-2.40;99.90;;;;;;5112505;27;20692;-71
2024/01/09 09:22:25;;;;;;;7.68;4.70;;;-2.30;99.90;;;;;;5112876;28;20217;-72
2024/01/09 09:24:53;;;;;;;6.85;4.22;;;-2.20;99.90;;;;;;5113040;28;20200;-71
2024/01/09 09:27:22;;;;;;;7.20;4.63;;;-2.10;99.90;;;;;;5112748;28;20219;-72
2024/01/09 09:29:52;;;;;;;7.18;4.47;;;-2.00;99.90;;;;;;5103721;28;20655;-71
2024/01/09 09:32:20;;;;;;;6.60;4.43;;;-1.90;99.90;;;;;;5112567;28;20583;-72
2024/01/09 09:34:48;;;;;;;6.90;4.75;;;-1.90;99.90;;;;;;5112817;28;20196;-71
2024/01/09 09:37:19;;;;;;;6.78;4.25;;;-1.70;99.90;;;;;;5112857;28;20602;-71
2024/01/09 09:39:47;;;;;;;7.43;4.60;;;-1.60;99.90;;;;;;5111805;28;20287;-71
2024/01/09 09:42:15;;;;;;;7.60;4.22;;;-1.70;99.90;;;;;;5112497;28;20227;-71
2024/01/09 09:44:46;;;;;;;8.88;4.38;;;-1.70;99.90;;;;;;5112686;28;20621;-71
2024/01/09 09:47:15;;;;;;;9.80;4.38;;;-1.70;99.90;;;;;;5112512;28;20225;-71
2024/01/09 09:49:43;;;;;;;9.20;4.25;;;-1.70;99.90;;;;;;5111910;28;20211;-71
2024/01/09 09:52:11;;;;;;;6.72;4.65;;;-1.60;99.90;;;;;;5111981;28;20254;-71
2024/01/09 09:54:39;;;;;;;8.40;4.47;;;-1.60;99.90;;;;;;5112202;28;20235;-72
2024/01/09 09:57:07;;;;;;;9.68;4.30;;;-1.60;99.90;;;;;;5112461;28;20594;-71
2024/01/09 09:59:35;;;;;;;6.97;4.13;;;-1.50;99.90;;;;;;5111383;28;20208;-71
2024/01/09 10:02:06;;;;;;;8.30;3.92;;;-1.50;99.90;;;;;;5112173;28;20668;-71
2024/01/09 10:04:38;;;;;;;9.32;4.60;;;-1.30;99.90;;;;;;5112213;28;20287;-71
2024/01/09 10:07:06;;;;;;;6.53;4.18;;;-1.00;99.90;;;;;;5111956;28;20262;-71
2024/01/09 10:09:37;;;;;;;8.80;4.28;;;-0.70;99.90;;;;;;5111236;28;20209;-71
2024/01/09 10:12:05;;;;;;;7.90;4.03;;;-0.20;99.90;;;;;;5109469;28;20204;-70
2024/01/09 10:14:33;;;;;;;6.80;4.53;;;0.10;99.90;;;;;;5108467;28;20255;-72
2024/01/09 10:17:03;;;;;;;8.80;4.18;;;0.30;99.90;;;;;;5103616;28;20221;-72
2024/01/09 10:19:33;;;;;;;4.93;3.65;;;0.40;99.90;;;;;;5106572;28;20215;-71
2024/01/09 10:22:01;;;;;;;6.88;4.40;;;0.50;99.90;;;;;;5111787;28;20662;-71
2024/01/09 10:24:29;;;;;;;6.45;4.20;;;0.70;99.90;;;;;;5106181;28;20197;-70
2024/01/09 10:26:56;;;;;;;7.43;4.07;;;0.70;99.90;;;;;;5111642;28;20262;-72
2024/01/09 10:29:24;;;;;;;7.78;4.40;;;0.90;99.90;;;;;;5103570;28;20689;-71
2024/01/09 10:31:52;;;;;;;7.22;3.67;;;1.10;99.90;;;;;;5111265;28;20563;-72
2024/01/09 10:34:20;;;;;;;7.72;4.80;;;1.10;99.90;;;;;;5111440;28;20310;-72
2024/01/09 10:36:50;;;;;;;6.53;4.75;;;1.00;99.90;;;;;;5108555;28;20228;-70
2024/01/09 10:39:18;;;;;;;7.90;4.15;;;1.00;99.90;;;;;;5107709;28;20219;-71
2024/01/09 10:41:46;;;;;;;7.38;4.68;;;0.90;99.90;;;;;;5104792;28;20214;-71
2024/01/09 10:44:14;;;;;;;11.32;5.00;;;0.80;99.90;;;;;;5111651;28;20192;-72
2024/01/09 10:46:42;;;;;;;7.85;4.45;;;0.80;99.90;;;;;;5109896;22;20229;-58
2024/01/09 10:49:10;;;;;;;7.43;4.57;;;0.90;99.90;;;;;;5061054;28;20663;-59
2024/01/09 10:51:39;;;;;;;6.35;4.30;;;1.10;99.90;;;;;;5056864;28;20210;-58
2024/01/09 10:54:08;;;;;;;8.77;4.68;;;1.10;99.90;;;;;;5055747;28;20256;-58
2024/01/09 10:56:36;;;;;;;8.30;4.18;;;1.20;99.90;;;;;;5049979;28;20250;-60
2024/01/09 10:59:04;;;;;;;6.45;4.20;;;1.30;99.90;;;;;;5050376;28;20229;-60
2024/01/09 11:01:32;;;;;;;6.20;3.83;;;1.30;99.80;;;;;;5058981;28;20210;-60
2024/01/09 11:04:00;;;;;;;8.95;4.75;;;1.40;99.20;;;;;;5050793;28;20260;-60
2024/01/09 11:06:28;;;;;;;6.35;3.92;;;1.40;99.40;;;;;;5050697;28;20263;-61
2024/01/09 11:08:58;;;;;;;6.07;4.57;;;1.20;98.60;;;;;;5053917;28;20349;-60
2024/01/09 11:11:28;;;;;;;6.72;4.32;;;1.20;99.10;;;;;;5054854;28;20624;-59
2024/01/09 11:13:56;;;;;;;8.75;4.57;;;1.20;99.40;;;;;;5053094;28;20253;-60
2024/01/09 11:16:24;;;;;;;8.98;4.75;;;1.10;99.90;;;;;;5050940;28;20313;-59
2024/01/09 11:18:52;;;;;;;6.38;4.13;;;1.10;99.90;;;;;;5050048;28;20213;-59
2024/01/09 11:21:24;;;;;;;6.45;3.97;;;1.20;99.70;;;;;;5050673;28;20206;-59
2024/01/09 11:23:54;;;;;;;9.10;4.82;;;1.20;98.40;;;;;;5053366;28;20709;-60
2024/01/09 11:26:23;;;;;;;9.18;4.50;;;1.20;98.20;;;;;;5055220;28;20221;-60
2024/01/09 11:28:53;;;;;;;7.68;4.05;;;1.20;98.30;;;;;;5051344;28;20246;-60
2024/01/09 11:31:21;;;;;;;8.50;5.07;;;1.30;98.60;;;;;;5062275;28;20230;-59
2024/01/09 11:33:49;;;;;;;10.88;5.68;;;1.30;98.30;;;;;;5065440;28;20336;-60
2024/01/09 11:36:27;;;;;;;9.73;4.88;;;1.20;98.50;;;;;;5074252;28;20221;-59
2024/01/09 11:38:55;;;;;;;8.88;5.00;;;1.10;98.20;;;;;;5065033;28;20285;-60
2024/01/09 11:41:24;;;;;;;9.20;4.55;;;0.90;98.10;;;;;;5059171;28;20588;-60
2024/01/09 11:44:03;;;;;;;8.27;4.78;;;0.80;98.60;;;;;;5054395;28;20208;-60
2024/01/09 11:46:32;;;;;;;8.25;4.63;;;0.80;98.90;;;;;;5054326;28;20312;-60
2024/01/09 11:49:00;;;;;;;5.82;4.13;;;0.70;98.50;;;;;;5066133;28;20207;-59
2024/01/09 11:51:30;;;;;;;7.40;4.28;;;0.60;98.50;;;;;;5074348;28;20765;-59
2024/01/09 11:53:59;;;;;;;9.93;4.53;;;0.60;99.00;;;;;;5074655;28;20286;-58
2024/01/09 11:56:27;;;;;;;5.38;4.20;;;0.60;99.00;;;;;;5074244;28;20256;-57
2024/01/09 11:58:56;;;;;;;7.25;4.35;;;0.70;98.70;;;;;;5073924;28;20205;-57
2024/01/09 12:01:26;;;;;;;11.02;4.97;;;0.70;98.90;;;;;;5066021;28;20228;-56
2024/01/09 12:03:55;;;;;;;10.63;5.00;;;0.70;99.20;;;;;;5073991;28;20213;-55
2024/01/09 12:06:23;;;;;;;9.10;5.10;;;0.70;99.30;;;;;;5065716;28;20594;-56
2024/01/09 12:08:51;;;;;;;7.30;4.82;;;0.70;99.80;;;;;;5065294;28;20209;-59
2024/01/09 12:11:19;;;;;;;8.10;4.93;;;0.70;99.50;;;;;;5059466;28;20206;-56
2024/01/09 12:13:48;;;;;;;8.30;4.72;;;0.70;99.60;;;;;;5053314;28;20246;-58
2024/01/09 12:16:20;;;;;;;6.05;4.75;;;0.80;99.90;;;;;;5053700;28;20711;-58
2024/01/09 12:18:51;;;;;;;7.25;4.32;;;1.00;99.90;;;;;;5055485;28;20245;-58
2024/01/09 12:21:20;;;;;;;7.20;4.30;;;1.10;99.00;;;;;;5058802;28;20206;-58
2024/01/09 12:23:47;;;;;;;6.05;4.32;;;1.10;97.90;;;;;;5052762;28;20678;-59
2024/01/09 12:26:35;;;;;;;9.07;4.15;;;1.00;98.20;;;;;;5064607;28;20236;-60
2024/01/09 12:29:04;;;;;;;7.28;4.63;;;1.00;98.00;;;;;;5072785;28;20205;-58
2024/01/09 12:31:33;;;;;;;7.18;4.18;;;1.10;97.90;;;;;;5073224;28;20205;-59
2024/01/09 12:34:03;;;;;;;7.22;4.65;;;1.20;97.50;;;;;;5061767;28;20213;-57
2024/01/09 12:36:31;;;;;;;9.93;4.68;;;1.10;96.90;;;;;;5073055;28;20286;-57
2024/01/09 12:38:59;;;;;;;11.30;4.30;;;1.10;97.20;;;;;;5061700;28;20259;-58
2024/01/09 12:41:29;;;;;;;5.82;4.40;;;1.10;97.30;;;;;;5072185;28;20662;-58
2024/01/09 12:44:07;;;;;;;7.40;4.57;;;1.10;97.30;;;;;;5064849;28;20209;-58
2024/01/09 12:46:35;;;;;;;7.15;4.43;;;1.10;97.30;;;;;;5073285;28;20252;-57
2024/01/09 12:49:05;;;;;;;6.70;4.65;;;1.20;97.00;;;;;;5072059;28;20252;-58